sensor_id;sensor_type;location;lat;lon;timestamp;temperature;humidity
66128;DHT22;52925;52.436;-1.952;2023-08-24T04:18:53;19.70;90.90
66128;DHT22;52925;52.436;-1.952;2023-08-24T04:20:15;19.60;90.90
66128;DHT22;52925;52.436;-1.952;2023-08-24T04:21:35;19.60;90.90
66128;DHT22;52925;52.436;-1.952;2023-08-24T04:22:56;19.60;90.90
66128;DHT22;52925;52.436;-1.952;2023-08-24T04:24:16;19.60;90.90
66128;DHT22;52925;52.436;-1.952;2023-08-24T04:25:39;19.60;90.80
66128;DHT22;52925;52.436;-1.952;2023-08-24T04:26:59;19.60;90.80
66128;DHT22;52925;52.436;-1.952;2023-08-24T04:28:21;19.60;90.90
66128;DHT22;52925;52.436;-1.952;2023-08-24T04:29:40;19.60;90.90
66128;DHT22;52925;52.436;-1.952;2023-08-24T04:31:02;19.60;90.90
66128;DHT22;52925;52.436;-1.952;2023-08-24T04:32:22;19.60;90.80
66128;DHT22;52925;52.436;-1.952;2023-08-24T04:33:43;19.60;90.80
66128;DHT22;52925;52.436;-1.952;2023-08-24T04:35:05;19.70;90.80
66128;DHT22;52925;52.436;-1.952;2023-08-24T04:36:26;19.60;90.80
66128;DHT22;52925;52.436;-1.952;2023-08-24T04:37:46;19.60;90.80
66128;DHT22;52925;52.436;-1.952;2023-08-24T04:39:06;19.60;90.80
66128;DHT22;52925;52.436;-1.952;2023-08-24T04:40:26;19.60;90.80
66128;DHT22;52925;52.436;-1.952;2023-08-24T04:41:47;19.60;90.70
66128;DHT22;52925;52.436;-1.952;2023-08-24T04:43:07;19.60;90.80
66128;DHT22;52925;52.436;-1.952;2023-08-24T04:44:28;19.60;90.80
66128;DHT22;52925;52.436;-1.952;2023-08-24T04:45:49;19.60;90.80
66128;DHT22;52925;52.436;-1.952;2023-08-24T04:47:11;19.60;90.80
66128;DHT22;52925;52.436;-1.952;2023-08-24T04:48:31;19.60;90.80
66128;DHT22;52925;52.436;-1.952;2023-08-24T04:49:53;19.60;90.90
66128;DHT22;52925;52.436;-1.952;2023-08-24T04:51:14;19.60;90.80
66128;DHT22;52925;52.436;-1.952;2023-08-24T04:52:35;19.60;90.80
66128;DHT22;52925;52.436;-1.952;2023-08-24T04:53:55;19.60;90.90
66128;DHT22;52925;52.436;-1.952;2023-08-24T04:55:16;19.60;90.80
66128;DHT22;52925;52.436;-1.952;2023-08-24T04:56:36;19.60;90.90
66128;DHT22;52925;52.436;-1.952;2023-08-24T04:57:57;19.60;90.80
66128;DHT22;52925;52.436;-1.952;2023-08-24T04:59:17;19.50;90.80
66128;DHT22;52925;52.436;-1.952;2023-08-24T05:00:38;19.60;90.90
66128;DHT22;52925;52.436;-1.952;2023-08-24T05:01:58;19.50;90.80
66128;DHT22;52925;52.436;-1.952;2023-08-24T05:03:19;19.60;90.80
66128;DHT22;52925;52.436;-1.952;2023-08-24T05:04:39;19.50;90.80
66128;DHT22;52925;52.436;-1.952;2023-08-24T05:06:00;19.50;90.80
66128;DHT22;52925;52.436;-1.952;2023-08-24T05:07:21;19.60;90.80
66128;DHT22;52925;52.436;-1.952;2023-08-24T05:08:42;19.50;90.70
66128;DHT22;52925;52.436;-1.952;2023-08-24T05:10:01;19.50;90.80
66128;DHT22;52925;52.436;-1.952;2023-08-24T05:11:24;19.50;90.80
66128;DHT22;52925;52.436;-1.952;2023-08-24T05:12:45;19.50;90.80
66128;DHT22;52925;52.436;-1.952;2023-08-24T05:14:06;19.50;90.80
66128;DHT22;52925;52.436;-1.952;2023-08-24T05:15:26;19.60;90.80
66128;DHT22;52925;52.436;-1.952;2023-08-24T05:16:46;19.50;90.70
66128;DHT22;52925;52.436;-1.952;2023-08-24T05:18:07;19.50;90.70
66128;DHT22;52925;52.436;-1.952;2023-08-24T05:19:28;19.50;90.70
66128;DHT22;52925;52.436;-1.952;2023-08-24T05:20:48;19.50;90.70
66128;DHT22;52925;52.436;-1.952;2023-08-24T05:22:10;19.50;90.60
66128;DHT22;52925;52.436;-1.952;2023-08-24T05:23:32;19.50;90.70
66128;DHT22;52925;52.436;-1.952;2023-08-24T05:24:52;19.50;90.60
66128;DHT22;52925;52.436;-1.952;2023-08-24T05:26:12;19.50;90.60
66128;DHT22;52925;52.436;-1.952;2023-08-24T05:27:33;19.50;90.60
66128;DHT22;52925;52.436;-1.952;2023-08-24T05:28:53;19.50;90.60
66128;DHT22;52925;52.436;-1.952;2023-08-24T05:30:14;19.50;90.60
66128;DHT22;52925;52.436;-1.952;2023-08-24T05:31:34;19.50;90.60
66128;DHT22;52925;52.436;-1.952;2023-08-24T05:32:55;19.50;90.50
66128;DHT22;52925;52.436;-1.952;2023-08-24T05:34:15;19.50;90.50
66128;DHT22;52925;52.436;-1.952;2023-08-24T05:35:35;19.50;90.50
66128;DHT22;52925;52.436;-1.952;2023-08-24T05:36:55;19.50;90.50
66128;DHT22;52925;52.436;-1.952;2023-08-24T05:38:17;19.50;90.50
66128;DHT22;52925;52.436;-1.952;2023-08-24T05:39:38;19.50;90.50
66128;DHT22;52925;52.436;-1.952;2023-08-24T05:41:00;19.50;90.50
66128;DHT22;52925;52.436;-1.952;2023-08-24T05:42:19;19.50;90.50
66128;DHT22;52925;52.436;-1.952;2023-08-24T05:43:40;19.50;90.50
66128;DHT22;52925;52.436;-1.952;2023-08-24T05:45:00;19.50;90.50
66128;DHT22;52925;52.436;-1.952;2023-08-24T05:46:21;19.50;90.50
66128;DHT22;52925;52.436;-1.952;2023-08-24T05:47:41;19.50;90.50
66128;DHT22;52925;52.436;-1.952;2023-08-24T05:49:02;19.40;90.50
66128;DHT22;52925;52.436;-1.952;2023-08-24T05:50:23;19.50;90.50
66128;DHT22;52925;52.436;-1.952;2023-08-24T05:51:43;19.40;90.50
66128;DHT22;52925;52.436;-1.952;2023-08-24T05:53:04;19.50;90.40
66128;DHT22;52925;52.436;-1.952;2023-08-24T05:54:24;19.40;90.40
66128;DHT22;52925;52.436;-1.952;2023-08-24T05:55:46;19.40;90.40
66128;DHT22;52925;52.436;-1.952;2023-08-24T05:57:06;19.40;90.40
66128;DHT22;52925;52.436;-1.952;2023-08-24T05:58:27;19.40;90.40
66128;DHT22;52925;52.436;-1.952;2023-08-24T05:59:47;19.40;90.40
66128;DHT22;52925;52.436;-1.952;2023-08-24T06:01:08;19.40;90.50
66128;DHT22;52925;52.436;-1.952;2023-08-24T06:02:29;19.40;90.50
66128;DHT22;52925;52.436;-1.952;2023-08-24T06:03:50;19.40;90.50
66128;DHT22;52925;52.436;-1.952;2023-08-24T06:05:10;19.40;90.50
66128;DHT22;52925;52.436;-1.952;2023-08-24T06:06:32;19.40;90.50
66128;DHT22;52925;52.436;-1.952;2023-08-24T06:07:52;19.30;90.50
66128;DHT22;52925;52.436;-1.952;2023-08-24T06:09:13;19.40;90.50
66128;DHT22;52925;52.436;-1.952;2023-08-24T06:10:34;19.30;90.40
66128;DHT22;52925;52.436;-1.952;2023-08-24T06:11:56;19.40;90.40
66128;DHT22;52925;52.436;-1.952;2023-08-24T06:13:16;19.40;90.40
66128;DHT22;52925;52.436;-1.952;2023-08-24T06:14:37;19.40;90.40
66128;DHT22;52925;52.436;-1.952;2023-08-24T06:15:57;19.40;90.40
66128;DHT22;52925;52.436;-1.952;2023-08-24T06:17:18;19.40;90.30
66128;DHT22;52925;52.436;-1.952;2023-08-24T06:18:38;19.40;90.20
66128;DHT22;52925;52.436;-1.952;2023-08-24T06:19:59;19.40;90.20
66128;DHT22;52925;52.436;-1.952;2023-08-24T06:21:18;19.40;90.20
66128;DHT22;52925;52.436;-1.952;2023-08-24T06:22:39;19.30;90.20
66128;DHT22;52925;52.436;-1.952;2023-08-24T06:23:59;19.40;90.10
66128;DHT22;52925;52.436;-1.952;2023-08-24T06:25:21;19.40;90.10
66128;DHT22;52925;52.436;-1.952;2023-08-24T06:26:42;19.40;90.10
66128;DHT22;52925;52.436;-1.952;2023-08-24T06:28:05;19.30;90.00
66128;DHT22;52925;52.436;-1.952;2023-08-24T06:29:27;19.40;90.10
66128;DHT22;52925;52.436;-1.952;2023-08-24T06:30:48;19.40;89.90
66128;DHT22;52925;52.436;-1.952;2023-08-24T06:32:09;19.30;90.00
66128;DHT22;52925;52.436;-1.952;2023-08-24T06:33:29;19.30;90.00
66128;DHT22;52925;52.436;-1.952;2023-08-24T06:34:50;19.30;90.00
66128;DHT22;52925;52.436;-1.952;2023-08-24T06:36:10;19.30;89.80
66128;DHT22;52925;52.436;-1.952;2023-08-24T06:37:32;19.30;89.60
66128;DHT22;52925;52.436;-1.952;2023-08-24T06:38:52;19.30;89.60
66128;DHT22;52925;52.436;-1.952;2023-08-24T06:40:13;19.30;89.90
66128;DHT22;52925;52.436;-1.952;2023-08-24T06:41:34;19.30;89.80
66128;DHT22;52925;52.436;-1.952;2023-08-24T06:42:59;19.30;89.50
66128;DHT22;52925;52.436;-1.952;2023-08-24T06:44:21;19.30;89.60
66128;DHT22;52925;52.436;-1.952;2023-08-24T06:45:43;19.30;89.80
66128;DHT22;52925;52.436;-1.952;2023-08-24T06:47:03;19.40;89.70
66128;DHT22;52925;52.436;-1.952;2023-08-24T06:48:24;19.40;89.60
66128;DHT22;52925;52.436;-1.952;2023-08-24T06:49:44;19.40;89.60
66128;DHT22;52925;52.436;-1.952;2023-08-24T06:51:04;19.40;89.50
66128;DHT22;52925;52.436;-1.952;2023-08-24T06:52:24;19.40;89.70
66128;DHT22;52925;52.436;-1.952;2023-08-24T06:53:45;19.40;89.60
66128;DHT22;52925;52.436;-1.952;2023-08-24T06:55:08;19.40;89.60
66128;DHT22;52925;52.436;-1.952;2023-08-24T06:56:29;19.40;89.80
66128;DHT22;52925;52.436;-1.952;2023-08-24T06:57:49;19.40;89.70
66128;DHT22;52925;52.436;-1.952;2023-08-24T06:59:10;19.40;89.70
66128;DHT22;52925;52.436;-1.952;2023-08-24T07:00:34;19.40;89.70
66128;DHT22;52925;52.436;-1.952;2023-08-24T07:01:55;19.40;89.80
66128;DHT22;52925;52.436;-1.952;2023-08-24T07:03:15;19.40;89.80
66128;DHT22;52925;52.436;-1.952;2023-08-24T07:04:36;19.40;89.90
66128;DHT22;52925;52.436;-1.952;2023-08-24T07:05:57;19.40;89.70
66128;DHT22;52925;52.436;-1.952;2023-08-24T07:07:18;19.40;89.90
66128;DHT22;52925;52.436;-1.952;2023-08-24T07:08:38;19.40;89.90
66128;DHT22;52925;52.436;-1.952;2023-08-24T07:09:59;19.40;89.90
66128;DHT22;52925;52.436;-1.952;2023-08-24T07:11:19;19.40;89.90
66128;DHT22;52925;52.436;-1.952;2023-08-24T07:12:40;19.40;89.60
66128;DHT22;52925;52.436;-1.952;2023-08-24T07:14:00;19.40;89.50
66128;DHT22;52925;52.436;-1.952;2023-08-24T07:15:22;19.40;89.50
66128;DHT22;52925;52.436;-1.952;2023-08-24T07:16:43;19.40;89.00
66128;DHT22;52925;52.436;-1.952;2023-08-24T07:18:04;19.40;88.40
66128;DHT22;52925;52.436;-1.952;2023-08-24T07:19:24;19.40;88.60
66128;DHT22;52925;52.436;-1.952;2023-08-24T07:20:46;19.40;89.40
66128;DHT22;52925;52.436;-1.952;2023-08-24T07:22:06;19.40;88.80
66128;DHT22;52925;52.436;-1.952;2023-08-24T07:23:27;19.30;87.90
66128;DHT22;52925;52.436;-1.952;2023-08-24T07:24:47;19.30;87.70
66128;DHT22;52925;52.436;-1.952;2023-08-24T07:26:12;19.30;87.30
66128;DHT22;52925;52.436;-1.952;2023-08-24T07:27:32;19.30;87.70
66128;DHT22;52925;52.436;-1.952;2023-08-24T07:28:53;19.40;88.20
66128;DHT22;52925;52.436;-1.952;2023-08-24T07:30:13;19.40;87.80
66128;DHT22;52925;52.436;-1.952;2023-08-24T07:31:34;19.40;87.80
66128;DHT22;52925;52.436;-1.952;2023-08-24T07:32:56;19.40;87.50
66128;DHT22;52925;52.436;-1.952;2023-08-24T07:34:17;19.40;87.60
66128;DHT22;52925;52.436;-1.952;2023-08-24T07:35:36;19.40;87.10
66128;DHT22;52925;52.436;-1.952;2023-08-24T07:36:59;19.40;87.00
66128;DHT22;52925;52.436;-1.952;2023-08-24T07:38:19;19.40;86.70
66128;DHT22;52925;52.436;-1.952;2023-08-24T07:39:39;19.40;86.90
66128;DHT22;52925;52.436;-1.952;2023-08-24T07:40:59;19.30;85.60
66128;DHT22;52925;52.436;-1.952;2023-08-24T07:42:21;19.30;85.60
66128;DHT22;52925;52.436;-1.952;2023-08-24T07:43:40;19.20;84.60
66128;DHT22;52925;52.436;-1.952;2023-08-24T07:45:01;19.30;85.90
66128;DHT22;52925;52.436;-1.952;2023-08-24T07:46:21;19.30;85.50
66128;DHT22;52925;52.436;-1.952;2023-08-24T07:47:42;19.30;85.00
66128;DHT22;52925;52.436;-1.952;2023-08-24T07:49:03;19.30;84.00
66128;DHT22;52925;52.436;-1.952;2023-08-24T07:50:24;19.30;84.60
66128;DHT22;52925;52.436;-1.952;2023-08-24T07:51:44;19.30;85.30
66128;DHT22;52925;52.436;-1.952;2023-08-24T07:53:07;19.30;85.00
66128;DHT22;52925;52.436;-1.952;2023-08-24T07:54:26;19.40;84.30
66128;DHT22;52925;52.436;-1.952;2023-08-24T07:55:47;19.40;84.00
66128;DHT22;52925;52.436;-1.952;2023-08-24T07:57:08;19.40;84.20
66128;DHT22;52925;52.436;-1.952;2023-08-24T07:58:28;19.30;83.30
66128;DHT22;52925;52.436;-1.952;2023-08-24T07:59:50;19.30;83.60
66128;DHT22;52925;52.436;-1.952;2023-08-24T08:01:12;19.30;82.50
66128;DHT22;52925;52.436;-1.952;2023-08-24T08:02:31;19.30;82.80
66128;DHT22;52925;52.436;-1.952;2023-08-24T08:03:53;19.30;83.60
66128;DHT22;52925;52.436;-1.952;2023-08-24T08:05:14;19.30;83.40
66128;DHT22;52925;52.436;-1.952;2023-08-24T08:06:35;19.30;83.40
66128;DHT22;52925;52.436;-1.952;2023-08-24T08:07:54;19.40;82.70
66128;DHT22;52925;52.436;-1.952;2023-08-24T08:09:15;19.40;82.50
66128;DHT22;52925;52.436;-1.952;2023-08-24T08:10:36;19.40;82.00
66128;DHT22;52925;52.436;-1.952;2023-08-24T08:11:57;19.40;82.50
66128;DHT22;52925;52.436;-1.952;2023-08-24T08:13:16;19.40;80.90
66128;DHT22;52925;52.436;-1.952;2023-08-24T08:14:37;19.40;81.10
66128;DHT22;52925;52.436;-1.952;2023-08-24T08:16:01;19.40;82.40
66128;DHT22;52925;52.436;-1.952;2023-08-24T08:17:23;19.40;82.60
66128;DHT22;52925;52.436;-1.952;2023-08-24T08:18:43;19.40;82.10
66128;DHT22;52925;52.436;-1.952;2023-08-24T08:20:05;19.50;81.30
66128;DHT22;52925;52.436;-1.952;2023-08-24T08:21:26;19.50;81.90
66128;DHT22;52925;52.436;-1.952;2023-08-24T08:22:47;19.40;80.80
66128;DHT22;52925;52.436;-1.952;2023-08-24T08:24:07;19.50;80.90
66128;DHT22;52925;52.436;-1.952;2023-08-24T08:25:27;19.50;80.90
66128;DHT22;52925;52.436;-1.952;2023-08-24T08:26:47;19.60;81.40
66128;DHT22;52925;52.436;-1.952;2023-08-24T08:28:09;19.50;81.40
66128;DHT22;52925;52.436;-1.952;2023-08-24T08:29:29;19.50;81.10
66128;DHT22;52925;52.436;-1.952;2023-08-24T08:30:49;19.50;81.70
66128;DHT22;52925;52.436;-1.952;2023-08-24T08:32:09;19.50;81.10
66128;DHT22;52925;52.436;-1.952;2023-08-24T08:33:31;19.50;80.90
66128;DHT22;52925;52.436;-1.952;2023-08-24T08:34:52;19.50;80.00
66128;DHT22;52925;52.436;-1.952;2023-08-24T08:36:12;19.50;80.30
66128;DHT22;52925;52.436;-1.952;2023-08-24T08:37:34;19.50;79.90
66128;DHT22;52925;52.436;-1.952;2023-08-24T08:38:55;19.50;79.70
66128;DHT22;52925;52.436;-1.952;2023-08-24T08:40:17;19.50;80.40
66128;DHT22;52925;52.436;-1.952;2023-08-24T08:41:41;19.50;80.10
66128;DHT22;52925;52.436;-1.952;2023-08-24T08:43:03;19.50;80.90
66128;DHT22;52925;52.436;-1.952;2023-08-24T08:44:23;19.60;81.10
66128;DHT22;52925;52.436;-1.952;2023-08-24T08:45:45;19.60;81.50
66128;DHT22;52925;52.436;-1.952;2023-08-24T08:47:05;19.60;80.50
66128;DHT22;52925;52.436;-1.952;2023-08-24T08:48:28;19.60;79.90
66128;DHT22;52925;52.436;-1.952;2023-08-24T08:49:49;19.50;79.40
66128;DHT22;52925;52.436;-1.952;2023-08-24T08:51:10;19.50;79.30
66128;DHT22;52925;52.436;-1.952;2023-08-24T08:52:33;19.60;79.90
66128;DHT22;52925;52.436;-1.952;2023-08-24T08:53:54;19.50;80.60
66128;DHT22;52925;52.436;-1.952;2023-08-24T08:55:14;19.60;80.30
66128;DHT22;52925;52.436;-1.952;2023-08-24T08:56:35;19.50;79.60
66128;DHT22;52925;52.436;-1.952;2023-08-24T08:57:56;19.60;80.10
66128;DHT22;52925;52.436;-1.952;2023-08-24T08:59:19;19.60;79.70
66128;DHT22;52925;52.436;-1.952;2023-08-24T09:00:41;19.60;80.20
66128;DHT22;52925;52.436;-1.952;2023-08-24T09:02:03;19.60;80.50
66128;DHT22;52925;52.436;-1.952;2023-08-24T09:03:23;19.60;80.40
66128;DHT22;52925;52.436;-1.952;2023-08-24T09:04:45;19.60;80.10
66128;DHT22;52925;52.436;-1.952;2023-08-24T09:06:05;19.60;80.40
66128;DHT22;52925;52.436;-1.952;2023-08-24T09:07:26;19.60;80.40
66128;DHT22;52925;52.436;-1.952;2023-08-24T09:08:48;19.60;80.60
66128;DHT22;52925;52.436;-1.952;2023-08-24T09:10:09;19.60;80.40
66128;DHT22;52925;52.436;-1.952;2023-08-24T09:11:29;19.60;80.30
66128;DHT22;52925;52.436;-1.952;2023-08-24T09:12:50;19.70;80.30
66128;DHT22;52925;52.436;-1.952;2023-08-24T09:14:10;19.60;80.20
66128;DHT22;52925;52.436;-1.952;2023-08-24T09:15:35;19.60;80.10
66128;DHT22;52925;52.436;-1.952;2023-08-24T09:16:55;19.70;80.50
66128;DHT22;52925;52.436;-1.952;2023-08-24T09:18:16;19.70;80.50
66128;DHT22;52925;52.436;-1.952;2023-08-24T09:19:36;19.70;80.60
66128;DHT22;52925;52.436;-1.952;2023-08-24T09:20:58;19.60;80.70
66128;DHT22;52925;52.436;-1.952;2023-08-24T09:22:18;19.60;81.00
66128;DHT22;52925;52.436;-1.952;2023-08-24T09:23:43;19.60;81.10
66128;DHT22;52925;52.436;-1.952;2023-08-24T09:25:06;19.60;81.00
66128;DHT22;52925;52.436;-1.952;2023-08-24T09:26:28;19.70;81.30
66128;DHT22;52925;52.436;-1.952;2023-08-24T09:27:56;19.60;81.40
66128;DHT22;52925;52.436;-1.952;2023-08-24T09:29:17;19.70;81.60
66128;DHT22;52925;52.436;-1.952;2023-08-24T09:30:38;19.70;81.70
66128;DHT22;52925;52.436;-1.952;2023-08-24T09:31:58;19.60;81.90
66128;DHT22;52925;52.436;-1.952;2023-08-24T09:33:19;19.70;82.00
66128;DHT22;52925;52.436;-1.952;2023-08-24T09:34:41;19.70;82.10
66128;DHT22;52925;52.436;-1.952;2023-08-24T09:36:06;19.70;82.30
66128;DHT22;52925;52.436;-1.952;2023-08-24T09:37:31;19.70;82.40
66128;DHT22;52925;52.436;-1.952;2023-08-24T09:38:56;19.70;82.50
66128;DHT22;52925;52.436;-1.952;2023-08-24T09:40:24;19.70;82.50
66128;DHT22;52925;52.436;-1.952;2023-08-24T09:41:46;19.70;82.60
66128;DHT22;52925;52.436;-1.952;2023-08-24T09:43:12;19.70;82.80
66128;DHT22;52925;52.436;-1.952;2023-08-24T09:44:33;19.70;82.80
66128;DHT22;52925;52.436;-1.952;2023-08-24T09:45:54;19.70;82.90
66128;DHT22;52925;52.436;-1.952;2023-08-24T09:47:15;19.70;83.00
66128;DHT22;52925;52.436;-1.952;2023-08-24T09:48:35;19.80;83.10
66128;DHT22;52925;52.436;-1.952;2023-08-24T09:49:56;19.80;83.20
66128;DHT22;52925;52.436;-1.952;2023-08-24T09:51:16;19.80;83.20
66128;DHT22;52925;52.436;-1.952;2023-08-24T09:52:38;19.80;83.10
66128;DHT22;52925;52.436;-1.952;2023-08-24T09:54:03;19.80;83.10
66128;DHT22;52925;52.436;-1.952;2023-08-24T09:55:29;19.80;83.30
66128;DHT22;52925;52.436;-1.952;2023-08-24T09:56:54;19.80;83.30
66128;DHT22;52925;52.436;-1.952;2023-08-24T09:58:15;19.80;83.40
66128;DHT22;52925;52.436;-1.952;2023-08-24T09:59:38;19.80;83.50
66128;DHT22;52925;52.436;-1.952;2023-08-24T10:01:01;19.80;83.70
66128;DHT22;52925;52.436;-1.952;2023-08-24T10:02:23;19.80;83.70
66128;DHT22;52925;52.436;-1.952;2023-08-24T10:03:46;19.80;83.80
66128;DHT22;52925;52.436;-1.952;2023-08-24T10:05:07;19.80;83.80
66128;DHT22;52925;52.436;-1.952;2023-08-24T10:06:31;19.80;84.20
66128;DHT22;52925;52.436;-1.952;2023-08-24T10:07:53;19.80;84.40
66128;DHT22;52925;52.436;-1.952;2023-08-24T10:09:21;19.70;85.30
66128;DHT22;52925;52.436;-1.952;2023-08-24T10:10:43;19.80;84.80
66128;DHT22;52925;52.436;-1.952;2023-08-24T10:12:07;19.80;84.70
66128;DHT22;52925;52.436;-1.952;2023-08-24T10:13:36;19.80;84.60
66128;DHT22;52925;52.436;-1.952;2023-08-24T10:15:00;19.80;84.50
66128;DHT22;52925;52.436;-1.952;2023-08-24T10:16:23;19.80;84.40
66128;DHT22;52925;52.436;-1.952;2023-08-24T10:17:45;19.90;84.50
66128;DHT22;52925;52.436;-1.952;2023-08-24T10:19:06;19.90;84.40
66128;DHT22;52925;52.436;-1.952;2023-08-24T10:20:26;19.90;84.60
66128;DHT22;52925;52.436;-1.952;2023-08-24T10:21:47;19.90;84.50
66128;DHT22;52925;52.436;-1.952;2023-08-24T10:23:11;19.90;84.70
66128;DHT22;52925;52.436;-1.952;2023-08-24T10:24:31;19.90;84.60
66128;DHT22;52925;52.436;-1.952;2023-08-24T10:25:55;19.90;84.70
66128;DHT22;52925;52.436;-1.952;2023-08-24T10:27:16;19.90;84.70
66128;DHT22;52925;52.436;-1.952;2023-08-24T10:28:39;19.90;84.70
66128;DHT22;52925;52.436;-1.952;2023-08-24T10:29:59;19.80;84.80
66128;DHT22;52925;52.436;-1.952;2023-08-24T10:31:20;19.90;85.00
66128;DHT22;52925;52.436;-1.952;2023-08-24T10:32:41;19.90;85.00
66128;DHT22;52925;52.436;-1.952;2023-08-24T10:34:06;19.90;85.00
66128;DHT22;52925;52.436;-1.952;2023-08-24T10:35:26;19.90;84.90
66128;DHT22;52925;52.436;-1.952;2023-08-24T10:36:49;19.90;84.90
66128;DHT22;52925;52.436;-1.952;2023-08-24T10:38:09;19.90;85.10
66128;DHT22;52925;52.436;-1.952;2023-08-24T10:39:46;20.00;85.20
66128;DHT22;52925;52.436;-1.952;2023-08-24T10:41:09;19.90;85.20
66128;DHT22;52925;52.436;-1.952;2023-08-24T10:42:43;20.00;85.20
66128;DHT22;52925;52.436;-1.952;2023-08-24T10:44:05;20.00;85.40
66128;DHT22;52925;52.436;-1.952;2023-08-24T10:45:25;19.90;85.50
66128;DHT22;52925;52.436;-1.952;2023-08-24T10:47:11;20.00;85.40
66128;DHT22;52925;52.436;-1.952;2023-08-24T10:48:58;20.00;85.50
66128;DHT22;52925;52.436;-1.952;2023-08-24T10:50:21;19.90;85.20
66128;DHT22;52925;52.436;-1.952;2023-08-24T10:51:43;20.00;85.30
66128;DHT22;52925;52.436;-1.952;2023-08-24T10:53:07;20.00;85.30
66128;DHT22;52925;52.436;-1.952;2023-08-24T10:54:30;20.00;85.20
66128;DHT22;52925;52.436;-1.952;2023-08-24T10:56:11;20.00;85.10
66128;DHT22;52925;52.436;-1.952;2023-08-24T10:57:36;20.10;85.40
66128;DHT22;52925;52.436;-1.952;2023-08-24T10:59:10;20.10;85.50
66128;DHT22;52925;52.436;-1.952;2023-08-24T11:00:31;20.10;85.30
66128;DHT22;52925;52.436;-1.952;2023-08-24T11:01:55;20.10;85.30
66128;DHT22;52925;52.436;-1.952;2023-08-24T11:03:30;20.20;85.30
66128;DHT22;52925;52.436;-1.952;2023-08-24T11:05:05;20.10;85.10
66128;DHT22;52925;52.436;-1.952;2023-08-24T11:06:26;20.10;85.40
66128;DHT22;52925;52.436;-1.952;2023-08-24T11:07:49;20.10;85.30
66128;DHT22;52925;52.436;-1.952;2023-08-24T11:09:09;20.10;85.40
66128;DHT22;52925;52.436;-1.952;2023-08-24T11:10:46;20.10;85.60
66128;DHT22;52925;52.436;-1.952;2023-08-24T11:12:08;20.10;85.50
66128;DHT22;52925;52.436;-1.952;2023-08-24T11:13:28;20.10;85.30
66128;DHT22;52925;52.436;-1.952;2023-08-24T11:14:50;20.10;85.30
66128;DHT22;52925;52.436;-1.952;2023-08-24T11:16:40;20.20;85.40
66128;DHT22;52925;52.436;-1.952;2023-08-24T11:18:28;20.20;85.50
66128;DHT22;52925;52.436;-1.952;2023-08-24T11:19:50;20.20;85.60
66128;DHT22;52925;52.436;-1.952;2023-08-24T11:21:10;20.20;85.70
66128;DHT22;52925;52.436;-1.952;2023-08-24T11:22:32;20.20;85.60
66128;DHT22;52925;52.436;-1.952;2023-08-24T11:23:52;20.20;85.50
66128;DHT22;52925;52.436;-1.952;2023-08-24T11:25:13;20.30;85.50
66128;DHT22;52925;52.436;-1.952;2023-08-24T11:26:33;20.30;85.30
66128;DHT22;52925;52.436;-1.952;2023-08-24T11:27:57;20.30;85.40
66128;DHT22;52925;52.436;-1.952;2023-08-24T11:29:18;20.30;85.70
66128;DHT22;52925;52.436;-1.952;2023-08-24T11:30:43;20.30;85.70
66128;DHT22;52925;52.436;-1.952;2023-08-24T11:32:03;20.30;85.90
66128;DHT22;52925;52.436;-1.952;2023-08-24T11:33:29;20.30;85.80
66128;DHT22;52925;52.436;-1.952;2023-08-24T11:34:49;20.30;86.10
66128;DHT22;52925;52.436;-1.952;2023-08-24T11:36:12;20.30;85.80
66128;DHT22;52925;52.436;-1.952;2023-08-24T11:37:31;20.40;85.80
66128;DHT22;52925;52.436;-1.952;2023-08-24T11:38:58;20.30;85.90
66128;DHT22;52925;52.436;-1.952;2023-08-24T11:40:18;20.30;85.70
66128;DHT22;52925;52.436;-1.952;2023-08-24T11:41:40;20.30;85.50
66128;DHT22;52925;52.436;-1.952;2023-08-24T11:43:01;20.40;85.60
66128;DHT22;52925;52.436;-1.952;2023-08-24T11:44:22;20.40;85.60
66128;DHT22;52925;52.436;-1.952;2023-08-24T11:45:42;20.30;85.60
66128;DHT22;52925;52.436;-1.952;2023-08-24T11:47:03;20.30;85.50
66128;DHT22;52925;52.436;-1.952;2023-08-24T11:48:24;20.30;85.50
66128;DHT22;52925;52.436;-1.952;2023-08-24T11:49:48;20.30;85.70
66128;DHT22;52925;52.436;-1.952;2023-08-24T11:51:09;20.40;85.50
66128;DHT22;52925;52.436;-1.952;2023-08-24T11:52:32;20.40;85.50
66128;DHT22;52925;52.436;-1.952;2023-08-24T11:53:55;20.40;85.10
66128;DHT22;52925;52.436;-1.952;2023-08-24T11:55:17;20.30;85.30
66128;DHT22;52925;52.436;-1.952;2023-08-24T11:56:42;20.40;85.40
66128;DHT22;52925;52.436;-1.952;2023-08-24T11:58:04;20.40;85.20
66128;DHT22;52925;52.436;-1.952;2023-08-24T11:59:24;20.40;85.40
66128;DHT22;52925;52.436;-1.952;2023-08-24T12:00:46;20.50;85.30
66128;DHT22;52925;52.436;-1.952;2023-08-24T12:02:08;20.50;85.50
66128;DHT22;52925;52.436;-1.952;2023-08-24T12:03:31;20.50;85.60
66128;DHT22;52925;52.436;-1.952;2023-08-24T12:04:50;20.50;85.50
66128;DHT22;52925;52.436;-1.952;2023-08-24T12:06:12;20.50;85.60
66128;DHT22;52925;52.436;-1.952;2023-08-24T12:07:32;20.50;85.70
66128;DHT22;52925;52.436;-1.952;2023-08-24T12:08:54;20.50;85.60
66128;DHT22;52925;52.436;-1.952;2023-08-24T12:10:16;20.50;85.90
66128;DHT22;52925;52.436;-1.952;2023-08-24T12:11:36;20.50;85.60
66128;DHT22;52925;52.436;-1.952;2023-08-24T12:13:04;20.50;85.40
66128;DHT22;52925;52.436;-1.952;2023-08-24T12:14:24;20.50;85.60
66128;DHT22;52925;52.436;-1.952;2023-08-24T12:15:45;20.50;85.80
66128;DHT22;52925;52.436;-1.952;2023-08-24T12:17:06;20.60;85.70
66128;DHT22;52925;52.436;-1.952;2023-08-24T12:18:28;20.60;85.60
66128;DHT22;52925;52.436;-1.952;2023-08-24T12:19:58;20.60;85.60
66128;DHT22;52925;52.436;-1.952;2023-08-24T12:21:20;20.60;85.50
66128;DHT22;52925;52.436;-1.952;2023-08-24T12:22:40;20.60;85.50
66128;DHT22;52925;52.436;-1.952;2023-08-24T12:24:01;20.60;86.20
66128;DHT22;52925;52.436;-1.952;2023-08-24T12:25:25;20.60;85.40
66128;DHT22;52925;52.436;-1.952;2023-08-24T12:26:55;20.60;85.50
66128;DHT22;52925;52.436;-1.952;2023-08-24T12:28:17;20.70;85.50
66128;DHT22;52925;52.436;-1.952;2023-08-24T12:29:44;20.70;85.40
66128;DHT22;52925;52.436;-1.952;2023-08-24T12:31:04;20.60;85.40
66128;DHT22;52925;52.436;-1.952;2023-08-24T12:32:25;20.70;85.40
66128;DHT22;52925;52.436;-1.952;2023-08-24T12:33:59;20.70;85.20
66128;DHT22;52925;52.436;-1.952;2023-08-24T12:35:20;20.70;85.20
66128;DHT22;52925;52.436;-1.952;2023-08-24T12:36:41;20.70;85.10
66128;DHT22;52925;52.436;-1.952;2023-08-24T12:38:03;20.70;85.10
66128;DHT22;52925;52.436;-1.952;2023-08-24T12:39:23;20.80;85.10
66128;DHT22;52925;52.436;-1.952;2023-08-24T12:40:45;20.70;85.10
66128;DHT22;52925;52.436;-1.952;2023-08-24T12:42:05;20.80;85.20
66128;DHT22;52925;52.436;-1.952;2023-08-24T12:43:27;20.70;85.10
66128;DHT22;52925;52.436;-1.952;2023-08-24T12:44:47;20.70;85.00
66128;DHT22;52925;52.436;-1.952;2023-08-24T12:46:08;20.80;85.10
66128;DHT22;52925;52.436;-1.952;2023-08-24T12:47:29;20.70;85.10